createdAt,value
2019-03-12T00:01:08.055Z,25.10
2019-03-12T00:03:38.142Z,25.00
2019-03-12T00:06:08.229Z,25.00
2019-03-12T00:08:38.149Z,24.90
2019-03-12T00:11:08.236Z,25.00
2019-03-12T00:13:38.335Z,25.10
2019-03-12T00:16:08.334Z,25.20
2019-03-12T00:18:38.328Z,25.10
2019-03-12T00:21:08.249Z,25.10
2019-03-12T00:23:38.178Z,25.10
2019-03-12T00:26:08.222Z,25.10
2019-03-12T00:28:38.244Z,25.10
2019-03-12T00:31:08.377Z,25.00
2019-03-12T00:33:38.265Z,25.00
2019-03-12T00:36:08.378Z,25.10
2019-03-12T00:38:38.287Z,25.50
2019-03-12T00:41:08.321Z,25.10
2019-03-12T00:43:38.307Z,25.10
2019-03-12T00:46:08.479Z,25.10
2019-03-12T00:48:38.434Z,25.00
2019-03-12T00:51:08.547Z,25.10
2019-03-12T00:53:38.537Z,25.00
2019-03-12T00:56:08.517Z,25.00
2019-03-12T00:58:38.403Z,25.60
2019-03-12T01:01:08.505Z,25.10
2019-03-12T01:03:38.606Z,25.00
2019-03-12T01:06:08.585Z,25.10
2019-03-12T01:08:38.603Z,25.00
2019-03-12T01:11:08.612Z,25.10
2019-03-12T01:13:38.595Z,25.10
2019-03-12T01:16:08.547Z,25.10
2019-03-12T01:18:38.434Z,25.10
2019-03-12T01:21:08.494Z,25.20
2019-03-12T01:23:38.425Z,25.10
2019-03-12T01:26:08.355Z,25.10
2019-03-12T01:28:38.391Z,25.10
2019-03-12T01:31:08.423Z,25.10
2019-03-12T01:33:38.442Z,25.00
2019-03-12T01:36:08.608Z,25.30
2019-03-12T01:38:38.513Z,25.10
2019-03-12T01:41:08.484Z,25.00
2019-03-12T01:43:38.369Z,24.90
2019-03-12T01:46:08.484Z,25.00
2019-03-12T01:48:38.371Z,24.90
2019-03-12T01:51:08.328Z,24.90
2019-03-12T01:53:38.554Z,24.90
2019-03-12T01:56:08.495Z,24.80
2019-03-12T01:58:38.379Z,24.90
2019-03-12T02:01:08.781Z,24.90
2019-03-12T02:03:38.886Z,24.90
2019-03-12T02:06:08.893Z,24.80
2019-03-12T02:08:38.863Z,24.70
2019-03-12T02:11:08.795Z,24.80
2019-03-12T02:13:39.109Z,24.90
2019-03-12T02:16:09.213Z,24.80
2019-03-12T02:18:39.134Z,24.80
2019-03-12T02:21:09.087Z,24.60
2019-03-12T02:23:39.087Z,24.70
2019-03-12T02:26:09.098Z,25.10
2019-03-12T02:28:38.999Z,24.60
2019-03-12T02:31:09.251Z,24.60
2019-03-12T02:33:39.328Z,24.50
2019-03-12T02:36:09.211Z,24.40
2019-03-12T02:38:39.196Z,24.40
2019-03-12T02:41:09.286Z,24.40
2019-03-12T02:43:39.185Z,24.50
2019-03-12T02:46:10.515Z,25.10
2019-03-12T02:48:40.450Z,24.70
2019-03-12T02:51:10.453Z,24.50
2019-03-12T02:53:40.419Z,24.50
2019-03-12T02:56:10.639Z,24.40
2019-03-12T02:58:40.550Z,24.50
2019-03-12T03:01:10.501Z,24.40
2019-03-12T03:03:40.522Z,24.40
2019-03-12T03:06:25.411Z,24.50
2019-03-12T03:08:55.417Z,24.50
2019-03-12T03:11:25.601Z,24.60
2019-03-12T03:13:55.508Z,24.50
2019-03-12T03:16:25.602Z,24.50
2019-03-12T03:18:55.543Z,24.60
2019-03-12T03:21:25.666Z,24.70
2019-03-12T03:23:55.750Z,24.70
2019-03-12T03:26:25.751Z,24.70
2019-03-12T03:28:55.662Z,24.80
2019-03-12T03:31:25.813Z,24.80
2019-03-12T03:33:55.717Z,24.70
2019-03-12T03:36:25.647Z,24.50
2019-03-12T03:38:55.582Z,24.40
2019-03-12T03:41:25.573Z,25.00
2019-03-12T03:43:55.562Z,24.40
2019-03-12T03:46:25.980Z,24.40
2019-03-12T03:48:55.854Z,24.40
2019-03-12T03:51:25.853Z,24.40
2019-03-12T03:53:55.960Z,24.40
2019-03-12T03:56:25.869Z,24.30
2019-03-12T03:58:55.894Z,24.30
2019-03-12T04:01:25.964Z,24.30
2019-03-12T04:03:56.058Z,24.30
2019-03-12T04:06:26.183Z,24.30
2019-03-12T04:08:56.276Z,24.30
2019-03-12T04:11:26.271Z,24.30
2019-03-12T04:13:56.238Z,24.40
2019-03-12T04:16:26.148Z,24.40
2019-03-12T04:18:56.237Z,24.30
2019-03-12T04:21:26.241Z,24.30
2019-03-12T04:23:56.316Z,24.30
2019-03-12T04:26:26.547Z,24.20
2019-03-12T04:28:56.555Z,24.60
2019-03-12T04:31:26.434Z,24.20
2019-03-12T04:34:19.496Z,24.20
2019-03-12T04:36:50.739Z,24.20
2019-03-12T04:39:20.800Z,24.20
2019-03-12T04:41:50.766Z,24.20
2019-03-12T04:44:20.766Z,24.30
2019-03-12T04:46:50.770Z,24.20
2019-03-12T04:49:20.852Z,24.10
2019-03-12T04:51:50.974Z,24.10
2019-03-12T04:54:21.090Z,24.10
2019-03-12T04:56:51.127Z,24.20
2019-03-12T04:59:21.039Z,24.20
2019-03-12T05:01:51.023Z,24.20
2019-03-12T05:04:20.977Z,24.20
2019-03-12T05:06:51.009Z,24.30
2019-03-12T05:09:20.983Z,24.30
2019-03-12T05:11:50.937Z,24.30
2019-03-12T05:14:25.887Z,24.40
2019-03-12T05:17:01.410Z,24.40
2019-03-12T05:19:31.631Z,24.50
2019-03-12T05:22:01.537Z,24.50
2019-03-12T05:24:31.442Z,24.60
2019-03-12T05:27:01.512Z,24.70
2019-03-12T05:29:31.396Z,24.70
2019-03-12T05:32:01.336Z,24.70
2019-03-12T05:34:31.373Z,24.70
2019-03-12T05:37:01.363Z,24.70
2019-03-12T05:39:31.314Z,24.70
2019-03-12T05:42:01.414Z,24.70
2019-03-12T05:44:31.455Z,24.70
2019-03-12T05:47:01.392Z,24.80
2019-03-12T05:49:31.401Z,24.70
2019-03-12T05:52:01.445Z,24.70
2019-03-12T05:54:31.458Z,24.60
2019-03-12T05:57:01.646Z,24.50
2019-03-12T05:59:31.581Z,25.10
2019-03-12T06:02:01.658Z,24.60
2019-03-12T06:04:31.738Z,24.60
2019-03-12T06:07:01.723Z,24.70
2019-03-12T06:09:31.787Z,24.70
2019-03-12T06:12:01.746Z,24.70
2019-03-12T06:14:31.774Z,24.70
2019-03-12T06:17:01.846Z,24.60
2019-03-12T06:19:31.850Z,24.70
2019-03-12T06:22:01.934Z,24.70
2019-03-12T06:24:32.035Z,24.50
2019-03-12T06:27:01.976Z,24.50
2019-03-12T06:29:31.988Z,24.50
2019-03-12T06:32:20.881Z,24.50
2019-03-12T06:34:59.403Z,24.60
2019-03-12T06:37:41.569Z,24.70
2019-03-12T06:40:36.710Z,24.60
2019-03-12T06:43:15.414Z,24.50
2019-03-12T06:46:04.585Z,24.50
2019-03-12T06:48:47.773Z,24.50
2019-03-12T06:51:42.709Z,24.70
2019-03-12T06:54:34.426Z,24.80
2019-03-12T06:57:29.212Z,24.80
2019-03-12T07:00:36.278Z,24.70
2019-03-12T07:03:34.364Z,24.80
2019-03-12T07:06:29.645Z,24.80
2019-03-12T07:09:24.227Z,24.90
2019-03-12T07:12:21.967Z,25.00
2019-03-12T07:15:02.194Z,25.00
2019-03-12T07:18:09.470Z,25.10
2019-03-12T07:20:58.382Z,25.40
2019-03-12T07:23:45.923Z,25.00
2019-03-12T07:26:34.910Z,25.00
2019-03-12T07:29:29.675Z,24.90
2019-03-12T07:32:20.460Z,24.80
2019-03-12T07:35:24.550Z,24.80
2019-03-12T07:38:13.361Z,24.60
2019-03-12T07:41:05.122Z,24.70
2019-03-12T07:44:08.907Z,24.80
2019-03-12T07:47:03.976Z,24.80
2019-03-12T07:49:55.725Z,24.80
2019-03-12T07:52:44.481Z,24.70
2019-03-12T07:55:32.142Z,24.60
2019-03-12T07:58:36.250Z,24.70
2019-03-12T08:01:20.903Z,23.20
2019-03-12T08:04:15.890Z,24.70
2019-03-12T08:07:03.416Z,24.70
2019-03-12T08:09:56.195Z,24.70
2019-03-12T08:12:51.390Z,24.70
2019-03-12T08:15:50.419Z,24.60
2019-03-12T08:18:51.874Z,24.60
2019-03-12T08:21:39.763Z,24.60
2019-03-12T08:24:31.642Z,24.60
2019-03-12T08:27:12.467Z,24.50
2019-03-12T08:30:04.121Z,24.50
2019-03-12T08:32:55.787Z,24.60
2019-03-12T08:35:41.891Z,24.80
2019-03-12T08:38:23.105Z,24.80
2019-03-12T08:41:17.771Z,24.70
2019-03-12T08:44:12.766Z,25.40
2019-03-12T08:47:13.841Z,24.80
2019-03-12T08:50:14.618Z,24.90
2019-03-12T08:53:00.571Z,25.00
2019-03-12T08:55:49.573Z,25.00
2019-03-12T08:58:35.818Z,25.00
2019-03-12T09:01:27.938Z,24.90
2019-03-12T09:04:12.644Z,24.80
2019-03-12T09:06:51.299Z,24.90
2019-03-12T09:09:43.216Z,24.90
2019-03-12T09:12:32.050Z,24.80
2019-03-12T09:15:14.186Z,24.80
2019-03-12T09:18:01.779Z,24.80
2019-03-12T09:20:49.949Z,24.90
2019-03-12T09:23:48.231Z,24.80
2019-03-12T09:26:40.326Z,24.80
2019-03-12T09:29:18.330Z,24.80
2019-03-12T09:32:22.272Z,24.80
2019-03-12T09:35:01.266Z,24.70
2019-03-12T09:37:36.735Z,24.70
2019-03-12T09:40:26.715Z,24.70
2019-03-12T09:43:14.230Z,24.70
2019-03-12T09:46:03.057Z,24.70
2019-03-12T09:48:42.125Z,24.80
2019-03-12T09:51:17.565Z,24.90
2019-03-12T09:54:24.754Z,25.00
2019-03-12T09:57:13.746Z,25.10
2019-03-12T10:00:15.443Z,25.00
2019-03-12T10:03:14.920Z,25.10
2019-03-12T10:06:08.734Z,25.10
2019-03-12T10:09:06.838Z,25.10
2019-03-12T10:12:01.373Z,25.10
2019-03-12T10:14:50.447Z,25.10
2019-03-12T10:17:30.287Z,25.20
2019-03-12T10:20:18.068Z,25.30
2019-03-12T10:23:00.808Z,25.30
2019-03-12T10:25:59.062Z,25.20
2019-03-12T10:28:46.803Z,25.20
2019-03-12T10:31:35.751Z,25.20
2019-03-12T10:34:29.626Z,25.10
2019-03-12T10:37:20.470Z,25.20
2019-03-12T10:40:14.317Z,25.10
2019-03-12T10:42:52.862Z,25.70
2019-03-12T10:45:29.997Z,25.30
2019-03-12T10:48:00.261Z,25.40
2019-03-12T10:50:30.471Z,25.40
2019-03-12T10:53:01.803Z,25.30
2019-03-12T10:55:31.912Z,25.40
2019-03-12T10:58:01.934Z,25.40
2019-03-12T11:00:31.934Z,25.40
2019-03-12T11:03:01.903Z,25.30
2019-03-12T11:05:44.942Z,25.40
2019-03-12T11:08:06.685Z,25.50
2019-03-12T11:10:36.101Z,25.50
2019-03-12T11:13:06.609Z,25.40
2019-03-12T11:15:36.646Z,25.40
2019-03-12T11:18:06.767Z,25.40
2019-03-12T11:20:36.983Z,25.30
2019-03-12T11:23:07.187Z,25.40
2019-03-12T11:25:37.530Z,25.40
2019-03-12T11:28:07.800Z,25.40
2019-03-12T11:30:37.978Z,25.40
2019-03-12T11:33:08.091Z,25.40
2019-03-12T11:35:39.684Z,25.30
2019-03-12T11:38:09.968Z,25.30
2019-03-12T11:40:40.157Z,25.30
2019-03-12T11:43:10.633Z,25.30
2019-03-12T11:45:40.966Z,25.30
2019-03-12T11:48:11.156Z,25.30
2019-03-12T11:50:41.533Z,25.30
2019-03-12T11:53:11.751Z,25.30
2019-03-12T11:55:42.097Z,25.30
2019-03-12T11:58:14.291Z,25.30
2019-03-12T12:01:09.489Z,25.30
2019-03-12T12:03:39.834Z,25.40
2019-03-12T12:06:10.106Z,25.40
2019-03-12T12:08:40.303Z,25.50
2019-03-12T12:11:10.512Z,26.00
2019-03-12T12:13:40.750Z,25.50
2019-03-12T12:16:10.856Z,25.50
2019-03-12T12:18:41.140Z,25.60
2019-03-12T12:21:11.359Z,25.60
2019-03-12T12:23:41.584Z,25.60
2019-03-12T12:26:11.596Z,25.60
2019-03-12T12:28:41.614Z,25.60
2019-03-12T12:31:11.832Z,25.50
2019-03-12T12:33:42.074Z,25.50
2019-03-12T12:36:12.227Z,25.50
2019-03-12T12:38:42.581Z,25.60
2019-03-12T12:41:12.864Z,25.50
2019-03-12T12:43:43.026Z,25.50
2019-03-12T12:46:13.155Z,25.60
2019-03-12T12:48:43.501Z,25.70
2019-03-12T12:51:13.634Z,25.70
2019-03-12T12:53:43.721Z,25.80
2019-03-12T12:56:14.041Z,25.80
2019-03-12T12:58:44.058Z,25.80
2019-03-12T13:01:14.360Z,25.80
2019-03-12T13:03:44.725Z,25.70
2019-03-12T13:06:14.821Z,25.70
2019-03-12T13:08:45.043Z,25.70
2019-03-12T13:11:15.042Z,25.70
2019-03-12T13:13:44.977Z,25.80
2019-03-12T13:16:24.358Z,25.80
2019-03-12T13:18:46.843Z,25.80
2019-03-12T13:21:17.144Z,25.90
2019-03-12T13:23:47.288Z,25.80
2019-03-12T13:26:17.199Z,25.90
2019-03-12T13:28:47.634Z,26.00
2019-03-12T13:31:17.705Z,26.00
2019-03-12T13:33:47.900Z,26.10
2019-03-12T13:36:18.717Z,26.00
2019-03-12T13:38:49.008Z,26.00
2019-03-12T13:41:19.401Z,25.90
2019-03-12T13:43:49.501Z,25.90
2019-03-12T13:46:19.450Z,26.00
2019-03-12T13:48:49.563Z,26.00
2019-03-12T13:51:19.625Z,26.00
2019-03-12T13:53:49.767Z,26.00
2019-03-12T13:56:19.959Z,26.10
2019-03-12T13:58:50.167Z,26.00
2019-03-12T14:01:20.188Z,26.50
2019-03-12T14:03:50.404Z,26.00
2019-03-12T14:06:20.331Z,26.10
2019-03-12T14:08:50.198Z,26.00
2019-03-12T14:11:20.296Z,26.00
2019-03-12T14:13:50.223Z,26.10
2019-03-12T14:16:20.190Z,26.20
2019-03-12T14:18:50.181Z,26.20
2019-03-12T14:21:20.318Z,26.20
2019-03-12T14:24:01.988Z,26.20
2019-03-12T14:26:32.243Z,26.30
2019-03-12T14:29:02.350Z,26.30
2019-03-12T14:31:32.371Z,26.30
2019-03-12T14:34:02.281Z,26.30
2019-03-12T14:36:32.382Z,26.30
2019-03-12T14:39:02.525Z,26.20
2019-03-12T14:41:32.485Z,26.40
2019-03-12T14:44:02.631Z,26.50
2019-03-12T14:46:32.788Z,26.50
2019-03-12T14:49:04.834Z,26.60
2019-03-12T14:52:00.346Z,26.50
2019-03-12T14:54:30.388Z,26.60
2019-03-12T14:57:00.434Z,26.60
2019-03-12T14:59:30.364Z,26.70
2019-03-12T15:02:00.433Z,26.60
2019-03-12T15:04:30.625Z,26.50
2019-03-12T15:07:00.846Z,26.60
2019-03-12T15:09:30.847Z,26.60
2019-03-12T15:12:02.038Z,26.60
2019-03-12T15:14:31.960Z,26.70
2019-03-12T15:17:01.974Z,26.70
2019-03-12T15:19:32.949Z,26.70
2019-03-12T15:22:02.954Z,26.70
2019-03-12T15:24:35.895Z,26.70
2019-03-12T15:27:04.763Z,26.70
2019-03-12T15:29:34.822Z,26.70
2019-03-12T15:32:04.851Z,26.70
2019-03-12T15:34:35.008Z,26.70
2019-03-12T15:37:05.065Z,26.70
2019-03-12T15:39:35.116Z,26.60
2019-03-12T15:42:05.212Z,26.60
2019-03-12T15:44:35.237Z,26.50
2019-03-12T15:47:08.863Z,26.50
2019-03-12T15:49:37.790Z,26.50
2019-03-12T15:52:08.634Z,26.50
2019-03-12T15:54:38.561Z,26.70
2019-03-12T15:57:08.518Z,26.80
2019-03-12T15:59:38.567Z,26.80
2019-03-12T16:02:08.558Z,26.90
2019-03-12T16:04:38.716Z,26.90
2019-03-12T16:07:08.800Z,27.00
2019-03-12T16:09:38.795Z,27.00
2019-03-12T16:12:08.805Z,27.40
2019-03-12T16:14:38.827Z,26.90
2019-03-12T16:17:08.748Z,27.00
2019-03-12T16:19:38.689Z,26.90
2019-03-12T16:22:09.047Z,26.90
2019-03-12T16:24:39.068Z,26.80
2019-03-12T16:27:09.379Z,26.70
2019-03-12T16:29:39.687Z,26.80
2019-03-12T16:32:09.653Z,26.80
2019-03-12T16:34:39.581Z,26.80
2019-03-12T16:37:09.886Z,26.80
2019-03-12T16:39:39.899Z,27.20
2019-03-12T16:42:09.810Z,27.10
2019-03-12T16:44:39.861Z,27.00
2019-03-12T16:47:09.942Z,26.90
2019-03-12T16:49:39.817Z,26.90
2019-03-12T16:52:09.929Z,26.90
2019-03-12T16:54:39.972Z,27.00
2019-03-12T16:57:09.970Z,26.90
2019-03-12T16:59:40.085Z,27.00
2019-03-12T17:02:10.330Z,27.00
2019-03-12T17:04:40.487Z,27.00
2019-03-12T17:07:10.489Z,27.00
2019-03-12T17:09:40.587Z,27.00
2019-03-12T17:12:10.728Z,27.00
2019-03-12T17:14:40.781Z,27.00
2019-03-12T17:17:10.806Z,27.10
2019-03-12T17:19:40.814Z,27.10
2019-03-12T17:22:10.810Z,27.10
2019-03-12T17:24:40.796Z,27.10
2019-03-12T17:27:10.888Z,27.10
2019-03-12T17:29:40.903Z,27.00
2019-03-12T17:32:10.985Z,27.00
2019-03-12T17:34:41.064Z,27.10
2019-03-12T17:37:11.273Z,27.00
2019-03-12T17:39:41.177Z,26.90
2019-03-12T17:42:11.414Z,26.90
2019-03-12T17:44:41.314Z,27.00
2019-03-12T17:47:11.491Z,27.00
2019-03-12T17:49:41.461Z,27.00
2019-03-12T17:52:11.601Z,26.90
2019-03-12T17:54:41.664Z,26.90
2019-03-12T17:57:11.575Z,26.90
2019-03-12T17:59:41.550Z,26.90
2019-03-12T18:02:11.562Z,26.90
2019-03-12T18:04:41.559Z,27.00
2019-03-12T18:07:11.709Z,26.90
2019-03-12T18:09:42.906Z,26.90
2019-03-12T18:12:12.946Z,27.00
2019-03-12T18:14:43.035Z,26.90
2019-03-12T18:17:13.153Z,26.90
2019-03-12T18:19:43.247Z,26.90
2019-03-12T18:22:13.402Z,27.00
2019-03-12T18:24:43.530Z,27.00
2019-03-12T18:27:13.798Z,27.00
2019-03-12T18:29:44.018Z,26.90
2019-03-12T18:32:14.037Z,27.00
2019-03-12T18:34:44.062Z,27.00
2019-03-12T18:37:14.074Z,27.00
2019-03-12T18:39:43.990Z,27.00
2019-03-12T18:42:14.117Z,26.90
2019-03-12T18:44:44.058Z,27.00
2019-03-12T18:47:13.948Z,26.90
2019-03-12T18:49:44.077Z,26.90
2019-03-12T18:52:14.154Z,27.00
2019-03-12T18:54:44.238Z,26.90
2019-03-12T18:57:15.327Z,26.90
2019-03-12T18:59:45.281Z,26.90
2019-03-12T19:02:15.270Z,26.90
2019-03-12T19:04:45.222Z,26.90
2019-03-12T19:07:18.414Z,26.90
2019-03-12T19:09:47.289Z,26.80
2019-03-12T19:12:17.301Z,26.90
2019-03-12T19:14:47.602Z,26.90
2019-03-12T19:17:17.651Z,26.90
2019-03-12T19:19:47.796Z,26.90
2019-03-12T19:22:17.736Z,26.80
2019-03-12T19:24:47.975Z,26.70
2019-03-12T19:27:19.221Z,26.60
2019-03-12T19:29:49.299Z,26.50
2019-03-12T19:32:25.053Z,26.50
2019-03-12T19:34:55.162Z,26.70
2019-03-12T19:37:25.298Z,26.60
2019-03-12T19:39:56.136Z,26.60
2019-03-12T19:42:27.036Z,26.50
2019-03-12T19:44:57.444Z,26.50
2019-03-12T19:47:27.511Z,26.50
2019-03-12T19:49:57.703Z,26.50
2019-03-12T19:52:28.105Z,26.50
2019-03-12T19:54:59.350Z,26.60
2019-03-12T19:57:30.532Z,26.60
2019-03-12T20:00:00.913Z,26.60
2019-03-12T20:02:31.750Z,26.70
2019-03-12T20:05:02.020Z,26.60
2019-03-12T20:07:32.231Z,26.60
2019-03-12T20:10:42.575Z,26.70
2019-03-12T20:13:50.340Z,26.70
2019-03-12T20:16:53.310Z,26.70
2019-03-12T20:19:58.789Z,26.80
2019-03-12T20:23:12.367Z,26.80
2019-03-12T20:26:41.311Z,26.90
2019-03-12T20:30:03.561Z,26.90
2019-03-12T20:33:10.685Z,27.00
2019-03-12T20:36:18.783Z,27.00
2019-03-12T20:39:56.934Z,27.00
2019-03-12T20:43:11.911Z,27.00
2019-03-12T20:46:28.993Z,27.50
2019-03-12T20:49:40.008Z,27.10
2019-03-12T20:52:45.677Z,27.10
2019-03-12T20:55:44.173Z,27.00
2019-03-12T20:59:00.278Z,26.90
2019-03-12T21:02:08.976Z,26.90
2019-03-12T21:05:15.011Z,27.00
2019-03-12T21:08:13.131Z,27.00
2019-03-12T21:11:25.841Z,26.90
2019-03-12T21:14:52.160Z,26.90
2019-03-12T21:18:22.997Z,26.90
2019-03-12T21:21:38.686Z,27.00
2019-03-12T21:24:19.491Z,27.00
2019-03-12T21:27:19.854Z,27.10
2019-03-12T21:29:54.184Z,27.00
2019-03-12T21:32:24.915Z,27.10
2019-03-12T21:34:55.326Z,26.90
2019-03-12T21:37:25.535Z,27.00
2019-03-12T21:39:56.364Z,27.20
2019-03-12T21:42:26.813Z,26.80
2019-03-12T21:44:56.942Z,26.80
2019-03-12T21:47:26.938Z,26.80
2019-03-12T21:49:57.070Z,26.70
2019-03-12T21:52:27.411Z,26.70
2019-03-12T21:54:57.410Z,26.50
2019-03-12T21:57:27.322Z,26.40
2019-03-12T21:59:57.554Z,26.80
2019-03-12T22:02:27.636Z,26.20
2019-03-12T22:04:57.652Z,26.20
2019-03-12T22:07:28.003Z,26.20
2019-03-12T22:09:58.152Z,26.30
2019-03-12T22:12:28.244Z,26.10
2019-03-12T22:14:58.218Z,26.00
2019-03-12T22:17:28.282Z,26.00
2019-03-12T22:19:58.284Z,26.00
2019-03-12T22:22:38.501Z,25.90
2019-03-12T22:25:10.469Z,25.90
2019-03-12T22:27:40.493Z,26.00
2019-03-12T22:30:16.618Z,26.00
2019-03-12T22:32:46.822Z,26.10
2019-03-12T22:35:17.045Z,26.10
2019-03-12T22:37:47.218Z,26.20
2019-03-12T22:40:17.495Z,26.20
2019-03-12T22:42:47.396Z,26.30
2019-03-12T22:45:17.475Z,26.20
2019-03-12T22:47:47.534Z,26.20
2019-03-12T22:50:17.866Z,26.20
2019-03-12T22:52:48.118Z,26.20
2019-03-12T22:55:18.153Z,26.20
2019-03-12T22:57:48.237Z,26.30
2019-03-12T23:00:18.486Z,26.80
2019-03-12T23:02:48.522Z,26.40
2019-03-12T23:05:18.648Z,26.40
2019-03-12T23:07:48.634Z,26.30
2019-03-12T23:10:19.868Z,26.90
2019-03-12T23:12:50.161Z,26.40
2019-03-12T23:15:20.586Z,26.40
2019-03-12T23:17:50.676Z,26.40
2019-03-12T23:20:20.959Z,26.90
2019-03-12T23:22:52.348Z,26.40
2019-03-12T23:25:22.520Z,26.40
2019-03-12T23:27:52.652Z,26.40
2019-03-12T23:30:24.161Z,26.30
2019-03-12T23:32:54.542Z,26.10
2019-03-12T23:35:24.618Z,26.00
2019-03-12T23:37:54.637Z,26.10
2019-03-12T23:40:24.714Z,26.00
2019-03-12T23:42:54.837Z,26.00
2019-03-12T23:45:24.933Z,26.10
2019-03-12T23:47:54.975Z,26.10
2019-03-12T23:50:26.634Z,26.20
2019-03-12T23:52:56.742Z,26.20
2019-03-12T23:55:27.038Z,26.30
2019-03-12T23:57:57.187Z,26.20
